sensor_id;sensor_type;location;lat;lon;timestamp;pressure;altitude;pressure_sealevel;temperature;humidity
55079;BME280;55187;49.496;6.010;2022-08-19T00:01:29;97278.97;;;14.16;100.00
55079;BME280;55187;49.496;6.010;2022-08-19T00:04:01;97274.44;;;14.17;100.00
55079;BME280;55187;49.496;6.010;2022-08-19T00:06:28;97278.59;;;14.13;100.00
55079;BME280;55187;49.496;6.010;2022-08-19T00:08:57;97273.31;;;14.06;100.00
55079;BME280;55187;49.496;6.010;2022-08-19T00:11:23;97275.00;;;14.00;100.00
55079;BME280;55187;49.496;6.010;2022-08-19T00:13:49;97274.38;;;13.98;100.00
55079;BME280;55187;49.496;6.010;2022-08-19T00:16:17;97272.69;;;14.11;100.00
55079;BME280;55187;49.496;6.010;2022-08-19T00:18:45;97274.28;;;14.12;100.00
55079;BME280;55187;49.496;6.010;2022-08-19T00:21:12;97280.75;;;14.22;100.00
55079;BME280;55187;49.496;6.010;2022-08-19T00:23:38;97274.50;;;14.10;100.00
55079;BME280;55187;49.496;6.010;2022-08-19T00:26:05;97271.31;;;14.01;100.00
55079;BME280;55187;49.496;6.010;2022-08-19T00:28:32;97270.00;;;14.11;100.00
55079;BME280;55187;49.496;6.010;2022-08-19T00:30:59;97269.81;;;14.05;100.00
55079;BME280;55187;49.496;6.010;2022-08-19T00:33:25;97264.41;;;13.94;100.00
55079;BME280;55187;49.496;6.010;2022-08-19T00:35:52;97259.63;;;14.02;100.00
55079;BME280;55187;49.496;6.010;2022-08-19T00:38:18;97263.38;;;13.95;100.00
55079;BME280;55187;49.496;6.010;2022-08-19T00:40:48;97262.13;;;13.97;100.00
55079;BME280;55187;49.496;6.010;2022-08-19T00:43:19;97275.88;;;13.94;100.00
55079;BME280;55187;49.496;6.010;2022-08-19T00:45:45;97268.91;;;13.93;100.00
55079;BME280;55187;49.496;6.010;2022-08-19T00:48:11;97268.16;;;13.86;100.00
55079;BME280;55187;49.496;6.010;2022-08-19T00:50:40;97257.94;;;13.83;100.00
55079;BME280;55187;49.496;6.010;2022-08-19T00:53:11;97264.88;;;13.84;100.00
55079;BME280;55187;49.496;6.010;2022-08-19T00:55:38;97246.41;;;13.89;100.00
55079;BME280;55187;49.496;6.010;2022-08-19T00:58:12;97253.59;;;13.89;100.00
55079;BME280;55187;49.496;6.010;2022-08-19T01:00:39;97254.63;;;13.88;100.00
55079;BME280;55187;49.496;6.010;2022-08-19T01:03:14;97244.41;;;13.84;100.00
55079;BME280;55187;49.496;6.010;2022-08-19T01:05:42;97249.53;;;13.86;100.00
55079;BME280;55187;49.496;6.010;2022-08-19T01:08:09;97240.50;;;13.87;100.00
55079;BME280;55187;49.496;6.010;2022-08-19T01:10:40;97246.22;;;13.91;100.00
55079;BME280;55187;49.496;6.010;2022-08-19T01:13:08;97256.25;;;13.89;100.00
55079;BME280;55187;49.496;6.010;2022-08-19T01:15:40;97255.59;;;13.93;100.00
55079;BME280;55187;49.496;6.010;2022-08-19T01:18:11;97268.47;;;13.96;100.00
55079;BME280;55187;49.496;6.010;2022-08-19T01:20:39;97252.50;;;13.96;100.00
55079;BME280;55187;49.496;6.010;2022-08-19T01:23:06;97254.97;;;13.98;100.00
55079;BME280;55187;49.496;6.010;2022-08-19T01:25:42;97245.72;;;14.00;100.00
55079;BME280;55187;49.496;6.010;2022-08-19T01:28:16;97250.50;;;13.92;100.00
55079;BME280;55187;49.496;6.010;2022-08-19T01:30:44;97241.69;;;13.91;100.00
55079;BME280;55187;49.496;6.010;2022-08-19T01:33:11;97239.31;;;13.83;100.00
55079;BME280;55187;49.496;6.010;2022-08-19T01:35:37;97232.09;;;13.90;100.00
55079;BME280;55187;49.496;6.010;2022-08-19T01:38:06;97234.00;;;13.83;100.00
55079;BME280;55187;49.496;6.010;2022-08-19T01:40:37;97234.00;;;13.83;100.00
55079;BME280;55187;49.496;6.010;2022-08-19T01:43:04;97239.31;;;13.83;100.00
55079;BME280;55187;49.496;6.010;2022-08-19T01:45:33;97244.91;;;13.75;100.00
55079;BME280;55187;49.496;6.010;2022-08-19T01:48:00;97248.47;;;13.87;100.00
55079;BME280;55187;49.496;6.010;2022-08-19T01:50:27;97246.09;;;13.79;100.00
55079;BME280;55187;49.496;6.010;2022-08-19T01:52:53;97245.75;;;13.69;100.00
55079;BME280;55187;49.496;6.010;2022-08-19T01:55:21;97249.00;;;13.71;100.00
55079;BME280;55187;49.496;6.010;2022-08-19T01:57:53;97244.34;;;13.66;100.00
55079;BME280;55187;49.496;6.010;2022-08-19T02:00:24;97248.41;;;13.69;100.00
55079;BME280;55187;49.496;6.010;2022-08-19T02:02:51;97255.81;;;13.67;100.00
55079;BME280;55187;49.496;6.010;2022-08-19T02:05:17;97239.22;;;13.71;100.00
55079;BME280;55187;49.496;6.010;2022-08-19T02:07:47;97241.47;;;13.68;100.00
55079;BME280;55187;49.496;6.010;2022-08-19T02:10:17;97239.53;;;13.81;100.00
55079;BME280;55187;49.496;6.010;2022-08-19T02:12:45;97232.66;;;13.74;100.00
55079;BME280;55187;49.496;6.010;2022-08-19T02:15:12;97230.34;;;13.77;100.00
55079;BME280;55187;49.496;6.010;2022-08-19T02:17:39;97232.34;;;13.82;100.00
55079;BME280;55187;49.496;6.010;2022-08-19T02:20:06;97240.03;;;13.72;100.00
55079;BME280;55187;49.496;6.010;2022-08-19T02:22:33;97251.06;;;13.69;100.00
55079;BME280;55187;49.496;6.010;2022-08-19T02:24:59;97249.41;;;13.74;100.00
55079;BME280;55187;49.496;6.010;2022-08-19T02:27:26;97251.06;;;13.69;100.00
55079;BME280;55187;49.496;6.010;2022-08-19T02:29:53;97252.56;;;13.64;100.00
55079;BME280;55187;49.496;6.010;2022-08-19T02:32:19;97252.31;;;13.66;100.00
55079;BME280;55187;49.496;6.010;2022-08-19T02:34:47;97240.88;;;13.66;100.00
55079;BME280;55187;49.496;6.010;2022-08-19T02:37:13;97237.78;;;13.69;100.00
55079;BME280;55187;49.496;6.010;2022-08-19T02:39:43;97244.34;;;13.66;100.00
55079;BME280;55187;49.496;6.010;2022-08-19T02:42:09;97233.66;;;13.73;100.00
55079;BME280;55187;49.496;6.010;2022-08-19T02:44:35;97243.66;;;13.77;100.00
55079;BME280;55187;49.496;6.010;2022-08-19T02:47:02;97245.09;;;13.73;100.00
55079;BME280;55187;49.496;6.010;2022-08-19T02:49:31;97259.44;;;13.72;100.00
55079;BME280;55187;49.496;6.010;2022-08-19T02:51:57;97255.75;;;13.73;100.00
55079;BME280;55187;49.496;6.010;2022-08-19T02:54:23;97260.03;;;13.74;100.00
55079;BME280;55187;49.496;6.010;2022-08-19T02:56:49;97260.66;;;13.76;100.00
55079;BME280;55187;49.496;6.010;2022-08-19T02:59:16;97262.50;;;13.76;100.00
55079;BME280;55187;49.496;6.010;2022-08-19T03:01:42;97258.63;;;13.72;100.00
55079;BME280;55187;49.496;6.010;2022-08-19T03:04:10;97263.56;;;13.68;100.00
55079;BME280;55187;49.496;6.010;2022-08-19T03:06:39;97268.06;;;13.68;100.00
55079;BME280;55187;49.496;6.010;2022-08-19T03:09:06;97263.78;;;13.67;100.00
55079;BME280;55187;49.496;6.010;2022-08-19T03:11:33;97265.81;;;13.71;100.00
55079;BME280;55187;49.496;6.010;2022-08-19T03:14:00;97263.56;;;13.68;100.00
55079;BME280;55187;49.496;6.010;2022-08-19T03:16:29;97264.59;;;13.67;100.00
55079;BME280;55187;49.496;6.010;2022-08-19T03:18:57;97262.31;;;13.71;100.00
55079;BME280;55187;49.496;6.010;2022-08-19T03:21:27;97262.91;;;13.73;100.00
55079;BME280;55187;49.496;6.010;2022-08-19T03:23:54;97273.34;;;13.74;100.00
55079;BME280;55187;49.496;6.010;2022-08-19T03:26:21;97277.25;;;13.72;100.00
55079;BME280;55187;49.496;6.010;2022-08-19T03:28:47;97267.22;;;13.74;100.00
55079;BME280;55187;49.496;6.010;2022-08-19T03:31:19;97267.03;;;13.69;100.00
55079;BME280;55187;49.496;6.010;2022-08-19T03:33:46;97275.19;;;13.74;100.00
55079;BME280;55187;49.496;6.010;2022-08-19T03:36:18;97276.59;;;13.76;100.00
55079;BME280;55187;49.496;6.010;2022-08-19T03:38:47;97278.63;;;13.81;100.00
55079;BME280;55187;49.496;6.010;2022-08-19T03:41:20;97267.81;;;13.76;100.00
55079;BME280;55187;49.496;6.010;2022-08-19T03:43:47;97274.59;;;13.72;100.00
55079;BME280;55187;49.496;6.010;2022-08-19T03:46:17;97276.59;;;13.76;100.00
55079;BME280;55187;49.496;6.010;2022-08-19T03:48:47;97279.91;;;13.72;100.00
55079;BME280;55187;49.496;6.010;2022-08-19T03:51:17;97280.84;;;13.84;100.00
55079;BME280;55187;49.496;6.010;2022-08-19T03:53:45;97270.28;;;13.71;100.00
55079;BME280;55187;49.496;6.010;2022-08-19T03:56:12;97268.28;;;13.66;100.00
55079;BME280;55187;49.496;6.010;2022-08-19T03:58:39;97277.09;;;13.67;100.00
55079;BME280;55187;49.496;6.010;2022-08-19T04:01:12;97273.22;;;13.62;100.00
55079;BME280;55187;49.496;6.010;2022-08-19T04:03:39;97274.63;;;13.65;100.00
55079;BME280;55187;49.496;6.010;2022-08-19T04:06:14;97271.31;;;13.70;100.00
55079;BME280;55187;49.496;6.010;2022-08-19T04:08:41;97266.09;;;13.56;100.00
55079;BME280;55187;49.496;6.010;2022-08-19T04:11:10;97265.06;;;13.57;100.00
55079;BME280;55187;49.496;6.010;2022-08-19T04:13:37;97264.81;;;13.66;100.00
55079;BME280;55187;49.496;6.010;2022-08-19T04:16:05;97285.06;;;13.67;100.00
55079;BME280;55187;49.496;6.010;2022-08-19T04:18:35;97278.94;;;13.59;100.00
55079;BME280;55187;49.496;6.010;2022-08-19T04:21:03;97287.75;;;13.60;100.00
55079;BME280;55187;49.496;6.010;2022-08-19T04:23:30;97281.06;;;13.51;100.00
55079;BME280;55187;49.496;6.010;2022-08-19T04:25:57;97282.50;;;13.47;100.00
55079;BME280;55187;49.496;6.010;2022-08-19T04:28:24;97283.75;;;13.44;100.00
55079;BME280;55187;49.496;6.010;2022-08-19T04:30:52;97280.44;;;13.49;100.00
55079;BME280;55187;49.496;6.010;2022-08-19T04:33:22;97283.31;;;13.47;100.00
55079;BME280;55187;49.496;6.010;2022-08-19T04:35:50;97275.50;;;13.52;100.00
55079;BME280;55187;49.496;6.010;2022-08-19T04:38:21;97277.38;;;13.52;100.00
55079;BME280;55187;49.496;6.010;2022-08-19T04:40:50;97277.16;;;13.53;100.00
55079;BME280;55187;49.496;6.010;2022-08-19T04:43:20;97281.28;;;13.42;100.00
55079;BME280;55187;49.496;6.010;2022-08-19T04:45:46;97288.84;;;13.46;100.00
55079;BME280;55187;49.496;6.010;2022-08-19T04:48:13;97287.41;;;13.43;100.00
55079;BME280;55187;49.496;6.010;2022-08-19T04:50:41;97288.72;;;13.66;100.00
55079;BME280;55187;49.496;6.010;2022-08-19T04:53:08;97287.53;;;13.61;100.00
55079;BME280;55187;49.496;6.010;2022-08-19T04:55:39;97293.69;;;13.62;100.00
55079;BME280;55187;49.496;6.010;2022-08-19T04:58:05;97294.91;;;13.59;100.00
55079;BME280;55187;49.496;6.010;2022-08-19T05:00:38;97287.72;;;13.67;100.00
55079;BME280;55187;49.496;6.010;2022-08-19T05:03:05;97294.59;;;13.81;100.00
55079;BME280;55187;49.496;6.010;2022-08-19T05:05:31;97290.63;;;13.90;100.00
55079;BME280;55187;49.496;6.010;2022-08-19T05:07:58;97292.69;;;13.88;100.00
55079;BME280;55187;49.496;6.010;2022-08-19T05:10:24;97301.47;;;13.89;100.00
55079;BME280;55187;49.496;6.010;2022-08-19T05:12:51;97300.03;;;13.93;100.00
55079;BME280;55187;49.496;6.010;2022-08-19T05:15:17;97303.66;;;13.98;100.00
55079;BME280;55187;49.496;6.010;2022-08-19T05:17:45;97311.81;;;14.03;100.00
55079;BME280;55187;49.496;6.010;2022-08-19T05:20:31;97304.81;;;14.09;100.00
55079;BME280;55187;49.496;6.010;2022-08-19T05:23:11;97313.56;;;14.16;100.00
55079;BME280;55187;49.496;6.010;2022-08-19T05:25:43;97321.66;;;14.28;100.00
55079;BME280;55187;49.496;6.010;2022-08-19T05:28:10;97330.00;;;14.38;100.00
55079;BME280;55187;49.496;6.010;2022-08-19T05:30:36;97321.34;;;14.43;100.00
55079;BME280;55187;49.496;6.010;2022-08-19T05:33:02;97322.44;;;14.60;100.00
55079;BME280;55187;49.496;6.010;2022-08-19T05:35:29;97312.84;;;14.78;100.00
55079;BME280;55187;49.496;6.010;2022-08-19T05:37:56;97318.06;;;14.91;100.00
55079;BME280;55187;49.496;6.010;2022-08-19T05:40:23;97318.94;;;15.22;100.00
55079;BME280;55187;49.496;6.010;2022-08-19T05:42:49;97325.22;;;15.27;100.00
55079;BME280;55187;49.496;6.010;2022-08-19T05:45:16;97333.88;;;15.41;100.00
55079;BME280;55187;49.496;6.010;2022-08-19T05:47:42;97332.22;;;15.77;100.00
55079;BME280;55187;49.496;6.010;2022-08-19T05:50:09;97324.16;;;15.96;100.00
55079;BME280;55187;49.496;6.010;2022-08-19T05:52:37;97329.53;;;16.19;98.56
55079;BME280;55187;49.496;6.010;2022-08-19T05:55:04;97326.56;;;16.51;95.61
55079;BME280;55187;49.496;6.010;2022-08-19T05:57:31;97332.28;;;16.78;95.34
55079;BME280;55187;49.496;6.010;2022-08-19T05:59:57;97327.53;;;16.92;94.48
55079;BME280;55187;49.496;6.010;2022-08-19T06:02:27;97337.47;;;17.32;91.36
55079;BME280;55187;49.496;6.010;2022-08-19T06:04:53;97330.56;;;17.48;89.82
55079;BME280;55187;49.496;6.010;2022-08-19T06:07:19;97339.22;;;17.67;88.02
55079;BME280;55187;49.496;6.010;2022-08-19T06:09:46;97338.50;;;17.83;86.73
55079;BME280;55187;49.496;6.010;2022-08-19T06:12:13;97337.91;;;18.10;83.86
55079;BME280;55187;49.496;6.010;2022-08-19T06:14:39;97340.09;;;18.13;83.93
55079;BME280;55187;49.496;6.010;2022-08-19T06:17:06;97345.41;;;18.41;82.81
55079;BME280;55187;49.496;6.010;2022-08-19T06:19:32;97342.69;;;18.08;83.82
55079;BME280;55187;49.496;6.010;2022-08-19T06:22:00;97351.88;;;18.29;84.19
55079;BME280;55187;49.496;6.010;2022-08-19T06:24:28;97346.63;;;18.67;81.53
55079;BME280;55187;49.496;6.010;2022-08-19T06:26:56;97342.91;;;18.69;80.52
55079;BME280;55187;49.496;6.010;2022-08-19T06:29:24;97350.47;;;18.55;82.48
55079;BME280;55187;49.496;6.010;2022-08-19T06:31:53;97354.50;;;18.57;82.04
55079;BME280;55187;49.496;6.010;2022-08-19T06:34:20;97352.84;;;19.07;81.48
55079;BME280;55187;49.496;6.010;2022-08-19T06:36:49;97345.59;;;19.46;78.07
55079;BME280;55187;49.496;6.010;2022-08-19T06:39:19;97348.59;;;19.72;75.73
55079;BME280;55187;49.496;6.010;2022-08-19T06:41:48;97354.06;;;20.37;74.89
55079;BME280;55187;49.496;6.010;2022-08-19T06:44:19;97349.78;;;21.05;70.66
55079;BME280;55187;49.496;6.010;2022-08-19T06:46:46;97353.41;;;22.10;68.60
55079;BME280;55187;49.496;6.010;2022-08-19T06:49:13;97352.91;;;22.95;65.42
55079;BME280;55187;49.496;6.010;2022-08-19T06:51:45;97358.97;;;24.17;60.20
55079;BME280;55187;49.496;6.010;2022-08-19T06:54:18;97373.50;;;24.65;58.13
55079;BME280;55187;49.496;6.010;2022-08-19T06:56:44;97375.47;;;25.90;55.82
55079;BME280;55187;49.496;6.010;2022-08-19T06:59:14;97374.25;;;26.21;54.86
55079;BME280;55187;49.496;6.010;2022-08-19T07:01:47;97396.09;;;26.67;52.56
55079;BME280;55187;49.496;6.010;2022-08-19T07:04:17;97390.34;;;27.48;50.42
55079;BME280;55187;49.496;6.010;2022-08-19T07:06:44;97391.16;;;27.90;50.48
55079;BME280;55187;49.496;6.010;2022-08-19T07:09:13;97398.31;;;28.00;50.37
55079;BME280;55187;49.496;6.010;2022-08-19T07:11:45;97399.47;;;28.58;48.82
55079;BME280;55187;49.496;6.010;2022-08-19T07:14:13;97408.91;;;29.59;45.49
55079;BME280;55187;49.496;6.010;2022-08-19T07:16:40;97404.16;;;29.42;45.60
55079;BME280;55187;49.496;6.010;2022-08-19T07:19:06;97408.50;;;29.12;46.26
55079;BME280;55187;49.496;6.010;2022-08-19T07:21:35;97409.38;;;29.61;44.66
55079;BME280;55187;49.496;6.010;2022-08-19T07:24:01;97411.78;;;29.23;45.97
55079;BME280;55187;49.496;6.010;2022-08-19T07:26:30;97413.69;;;29.94;45.71
55079;BME280;55187;49.496;6.010;2022-08-19T07:28:58;97406.22;;;28.83;45.97
55079;BME280;55187;49.496;6.010;2022-08-19T07:31:27;97411.94;;;29.58;45.12
55079;BME280;55187;49.496;6.010;2022-08-19T07:33:55;97407.16;;;30.64;43.50
55079;BME280;55187;49.496;6.010;2022-08-19T07:36:26;97410.06;;;30.94;42.10
55079;BME280;55187;49.496;6.010;2022-08-19T07:38:58;97414.03;;;31.23;42.25
55079;BME280;55187;49.496;6.010;2022-08-19T07:41:28;97415.22;;;31.51;41.38
55079;BME280;55187;49.496;6.010;2022-08-19T07:43:57;97416.88;;;31.26;41.75
55079;BME280;55187;49.496;6.010;2022-08-19T07:46:34;97414.78;;;31.32;42.42
55079;BME280;55187;49.496;6.010;2022-08-19T07:49:01;97417.44;;;30.41;44.82
55079;BME280;55187;49.496;6.010;2022-08-19T07:51:28;97415.13;;;30.00;44.15
55079;BME280;55187;49.496;6.010;2022-08-19T07:53:55;97416.97;;;30.48;43.68
55079;BME280;55187;49.496;6.010;2022-08-19T07:56:23;97413.50;;;29.90;44.24
55079;BME280;55187;49.496;6.010;2022-08-19T07:58:52;97422.44;;;30.57;44.04
55079;BME280;55187;49.496;6.010;2022-08-19T08:01:22;97414.47;;;32.10;42.19
55079;BME280;55187;49.496;6.010;2022-08-19T08:03:52;97415.78;;;32.04;40.61
55079;BME280;55187;49.496;6.010;2022-08-19T08:06:30;97415.00;;;31.65;42.28
55079;BME280;55187;49.496;6.010;2022-08-19T08:09:10;97415.38;;;30.99;42.87
55079;BME280;55187;49.496;6.010;2022-08-19T08:11:38;97415.06;;;31.86;41.30
55079;BME280;55187;49.496;6.010;2022-08-19T08:14:08;97410.34;;;31.10;42.50
55079;BME280;55187;49.496;6.010;2022-08-19T08:16:39;97405.69;;;30.23;43.79
55079;BME280;55187;49.496;6.010;2022-08-19T08:19:12;97408.59;;;31.05;42.72
55079;BME280;55187;49.496;6.010;2022-08-19T08:21:44;97406.09;;;28.88;45.38
55079;BME280;55187;49.496;6.010;2022-08-19T08:24:11;97418.91;;;30.39;43.14
55079;BME280;55187;49.496;6.010;2022-08-19T08:26:39;97411.09;;;28.50;46.08
55079;BME280;55187;49.496;6.010;2022-08-19T08:29:06;97419.91;;;31.51;40.56
55079;BME280;55187;49.496;6.010;2022-08-19T08:31:36;97414.72;;;31.88;41.50
55079;BME280;55187;49.496;6.010;2022-08-19T08:34:02;97419.50;;;29.30;45.21
55079;BME280;55187;49.496;6.010;2022-08-19T08:36:30;97406.59;;;28.90;46.30
55079;BME280;55187;49.496;6.010;2022-08-19T08:39:00;97415.94;;;28.98;45.68
55079;BME280;55187;49.496;6.010;2022-08-19T08:44:34;97412.59;;;27.04;49.18
55079;BME280;55187;49.496;6.010;2022-08-19T08:47:12;97412.91;;;27.49;49.24
55079;BME280;55187;49.496;6.010;2022-08-19T08:49:55;97422.66;;;26.32;53.15
55079;BME280;55187;49.496;6.010;2022-08-19T08:52:26;97406.16;;;26.67;51.19
55079;BME280;55187;49.496;6.010;2022-08-19T08:54:58;97409.75;;;26.62;53.63
55079;BME280;55187;49.496;6.010;2022-08-19T08:57:52;97407.63;;;25.54;54.57
55079;BME280;55187;49.496;6.010;2022-08-19T09:00:30;97408.94;;;24.98;56.91
55079;BME280;55187;49.496;6.010;2022-08-19T09:02:58;97410.03;;;25.80;54.85
55079;BME280;55187;49.496;6.010;2022-08-19T09:05:34;97404.50;;;26.85;51.42
55079;BME280;55187;49.496;6.010;2022-08-19T09:08:17;97407.75;;;25.68;52.34
55079;BME280;55187;49.496;6.010;2022-08-19T09:10:52;97416.47;;;25.06;54.26
55079;BME280;55187;49.496;6.010;2022-08-19T09:16:16;97409.19;;;27.72;47.85
55079;BME280;55187;49.496;6.010;2022-08-19T09:18:51;97407.09;;;25.52;53.56
55079;BME280;55187;49.496;6.010;2022-08-19T09:21:22;97409.69;;;25.86;53.77
55079;BME280;55187;49.496;6.010;2022-08-19T09:23:49;97409.84;;;24.88;55.06
55079;BME280;55187;49.496;6.010;2022-08-19T09:26:19;97405.47;;;25.27;55.67
55079;BME280;55187;49.496;6.010;2022-08-19T09:28:48;97391.47;;;27.00;51.52
55079;BME280;55187;49.496;6.010;2022-08-19T09:31:24;97392.56;;;27.32;47.91
55079;BME280;55187;49.496;6.010;2022-08-19T09:33:51;97395.28;;;28.38;47.30
55079;BME280;55187;49.496;6.010;2022-08-19T09:36:20;97396.47;;;29.44;45.19
55079;BME280;55187;49.496;6.010;2022-08-19T09:38:48;97402.66;;;28.37;46.24
55079;BME280;55187;49.496;6.010;2022-08-19T09:41:18;97404.31;;;27.28;49.23
55079;BME280;55187;49.496;6.010;2022-08-19T09:43:47;97399.31;;;27.02;48.65
55079;BME280;55187;49.496;6.010;2022-08-19T09:46:14;97411.69;;;27.27;48.24
55079;BME280;55187;49.496;6.010;2022-08-19T09:48:42;97402.81;;;28.18;47.88
55079;BME280;55187;49.496;6.010;2022-08-19T09:51:12;97412.91;;;29.22;44.08
55079;BME280;55187;49.496;6.010;2022-08-19T09:53:45;97406.16;;;28.74;44.79
55079;BME280;55187;49.496;6.010;2022-08-19T09:56:13;97406.81;;;30.22;43.46
55079;BME280;55187;49.496;6.010;2022-08-19T09:58:40;97422.19;;;29.61;44.81
55079;BME280;55187;49.496;6.010;2022-08-19T10:01:09;97411.53;;;28.65;45.00
55079;BME280;55187;49.496;6.010;2022-08-19T10:03:36;97411.41;;;29.16;44.63
55079;BME280;55187;49.496;6.010;2022-08-19T10:06:04;97416.69;;;28.67;45.06
55079;BME280;55187;49.496;6.010;2022-08-19T10:08:34;97416.41;;;29.94;42.84
55079;BME280;55187;49.496;6.010;2022-08-19T10:11:02;97423.94;;;31.83;40.53
55079;BME280;55187;49.496;6.010;2022-08-19T10:13:31;97421.38;;;28.53;47.22
55079;BME280;55187;49.496;6.010;2022-08-19T10:16:11;97425.44;;;27.31;49.94
55079;BME280;55187;49.496;6.010;2022-08-19T10:18:38;97407.78;;;28.02;47.69
55079;BME280;55187;49.496;6.010;2022-08-19T10:21:24;97410.50;;;28.39;47.45
55079;BME280;55187;49.496;6.010;2022-08-19T10:23:53;97410.94;;;28.32;47.57
55079;BME280;55187;49.496;6.010;2022-08-19T10:26:23;97416.00;;;29.29;46.07
55079;BME280;55187;49.496;6.010;2022-08-19T10:28:50;97413.19;;;27.33;49.23
55079;BME280;55187;49.496;6.010;2022-08-19T10:31:28;97418.13;;;25.02;53.88
55079;BME280;55187;49.496;6.010;2022-08-19T10:33:56;97411.38;;;25.00;55.06
55079;BME280;55187;49.496;6.010;2022-08-19T10:36:32;97412.03;;;24.02;57.15
55079;BME280;55187;49.496;6.010;2022-08-19T10:39:01;97418.28;;;23.98;57.28
55079;BME280;55187;49.496;6.010;2022-08-19T10:41:30;97408.56;;;23.92;57.69
55079;BME280;55187;49.496;6.010;2022-08-19T10:44:01;97410.63;;;23.35;57.71
55079;BME280;55187;49.496;6.010;2022-08-19T10:46:28;97420.59;;;23.39;57.58
55079;BME280;55187;49.496;6.010;2022-08-19T10:49:03;97413.91;;;24.07;56.47
55079;BME280;55187;49.496;6.010;2022-08-19T10:51:31;97415.28;;;24.04;55.87
55079;BME280;55187;49.496;6.010;2022-08-19T10:54:10;97416.59;;;22.70;58.14
55079;BME280;55187;49.496;6.010;2022-08-19T10:56:36;97414.56;;;23.73;56.33
55079;BME280;55187;49.496;6.010;2022-08-19T10:59:15;97415.53;;;24.87;53.76
55079;BME280;55187;49.496;6.010;2022-08-19T11:01:44;97417.03;;;25.38;52.25
55079;BME280;55187;49.496;6.010;2022-08-19T11:04:12;97415.28;;;25.95;50.38
55079;BME280;55187;49.496;6.010;2022-08-19T11:06:41;97413.38;;;25.71;51.85
55079;BME280;55187;49.496;6.010;2022-08-19T11:09:09;97414.13;;;25.77;52.13
55079;BME280;55187;49.496;6.010;2022-08-19T11:11:37;97411.47;;;25.96;51.73
55079;BME280;55187;49.496;6.010;2022-08-19T11:14:11;97425.06;;;27.05;49.21
55079;BME280;55187;49.496;6.010;2022-08-19T11:16:38;97412.41;;;26.67;47.85
55079;BME280;55187;49.496;6.010;2022-08-19T11:19:06;97420.38;;;26.21;48.53
55079;BME280;55187;49.496;6.010;2022-08-19T11:21:38;97413.53;;;25.32;46.09
55079;BME280;55187;49.496;6.010;2022-08-19T11:24:09;97426.38;;;24.53;49.66
55079;BME280;55187;49.496;6.010;2022-08-19T11:26:37;97421.03;;;23.93;51.35
55079;BME280;55187;49.496;6.010;2022-08-19T11:29:04;97430.06;;;23.47;51.75
55079;BME280;55187;49.496;6.010;2022-08-19T11:31:34;97420.66;;;23.14;53.29
55079;BME280;55187;49.496;6.010;2022-08-19T11:34:04;97411.09;;;23.67;53.26
55079;BME280;55187;49.496;6.010;2022-08-19T11:36:31;97412.03;;;24.02;52.33
55079;BME280;55187;49.496;6.010;2022-08-19T11:39:01;97418.19;;;23.38;53.43
55079;BME280;55187;49.496;6.010;2022-08-19T11:41:28;97416.44;;;23.83;51.57
55079;BME280;55187;49.496;6.010;2022-08-19T11:43:54;97409.16;;;24.33;51.15
55079;BME280;55187;49.496;6.010;2022-08-19T11:46:23;97408.75;;;24.60;48.93
55079;BME280;55187;49.496;6.010;2022-08-19T11:48:49;97407.06;;;24.25;50.49
55079;BME280;55187;49.496;6.010;2022-08-19T11:51:19;97409.38;;;24.47;50.18
55079;BME280;55187;49.496;6.010;2022-08-19T11:53:48;97407.94;;;24.10;51.34
55079;BME280;55187;49.496;6.010;2022-08-19T11:56:17;97411.25;;;24.02;48.74
55079;BME280;55187;49.496;6.010;2022-08-19T11:58:45;97410.44;;;23.96;51.49
55079;BME280;55187;49.496;6.010;2022-08-19T12:01:13;97410.78;;;23.69;52.47
55079;BME280;55187;49.496;6.010;2022-08-19T12:03:43;97410.56;;;23.65;53.09
55079;BME280;55187;49.496;6.010;2022-08-19T12:06:14;97396.81;;;23.52;53.63
55079;BME280;55187;49.496;6.010;2022-08-19T12:08:42;97406.53;;;23.53;53.80
55079;BME280;55187;49.496;6.010;2022-08-19T12:11:09;97409.16;;;23.73;53.93
55079;BME280;55187;49.496;6.010;2022-08-19T12:13:36;97407.81;;;23.71;53.90
55079;BME280;55187;49.496;6.010;2022-08-19T12:16:07;97410.78;;;23.69;54.39
55079;BME280;55187;49.496;6.010;2022-08-19T12:18:34;97412.84;;;23.17;56.13
55079;BME280;55187;49.496;6.010;2022-08-19T12:21:00;97402.59;;;23.04;56.47
55079;BME280;55187;49.496;6.010;2022-08-19T12:23:27;97411.19;;;23.32;56.13
55079;BME280;55187;49.496;6.010;2022-08-19T12:25:53;97418.72;;;23.35;56.29
55079;BME280;55187;49.496;6.010;2022-08-19T12:28:22;97415.53;;;22.92;57.74
55079;BME280;55187;49.496;6.010;2022-08-19T12:30:49;97419.59;;;22.99;58.25
55079;BME280;55187;49.496;6.010;2022-08-19T12:33:19;97410.13;;;22.97;58.13
55079;BME280;55187;49.496;6.010;2022-08-19T12:35:49;97410.41;;;22.75;58.84
55079;BME280;55187;49.496;6.010;2022-08-19T12:38:17;97406.34;;;22.98;59.24
55079;BME280;55187;49.496;6.010;2022-08-19T12:40:46;97393.66;;;22.93;57.71
55079;BME280;55187;49.496;6.010;2022-08-19T12:43:13;97401.78;;;23.03;57.68
55079;BME280;55187;49.496;6.010;2022-08-19T12:45:39;97398.00;;;22.89;58.23
55079;BME280;55187;49.496;6.010;2022-08-19T12:48:06;97386.06;;;23.36;57.42
55079;BME280;55187;49.496;6.010;2022-08-19T12:50:32;97389.22;;;23.74;56.62
55079;BME280;55187;49.496;6.010;2022-08-19T12:52:58;97388.63;;;23.82;56.22
55079;BME280;55187;49.496;6.010;2022-08-19T12:55:25;97396.44;;;23.89;57.33
55079;BME280;55187;49.496;6.010;2022-08-19T12:57:54;97389.28;;;24.08;56.91
55079;BME280;55187;49.496;6.010;2022-08-19T13:00:21;97388.97;;;24.20;56.00
55079;BME280;55187;49.496;6.010;2022-08-19T13:02:51;97380.28;;;24.23;55.37
55079;BME280;55187;49.496;6.010;2022-08-19T13:05:22;97386.47;;;23.69;55.93
55079;BME280;55187;49.496;6.010;2022-08-19T13:07:50;97394.53;;;23.90;57.51
55079;BME280;55187;49.496;6.010;2022-08-19T13:10:19;97384.50;;;23.90;55.59